• Join FlightAware (Why Join?)
  • Login
  • US Flag 
10:28AM EDT


 

Airport Tracker/Info


-or-


 

Live Flight TrackerFlight Track Log ✈ RPA4937 ✈ 29-Apr-2013 ✈ KORF - KEWR

Flight Track Log - Related Links

Times and Time Zones

All times are in EDT time to prevent confusion due to time zone crossing. See the RPA4937 flight status page for this flight to view local times or setup timezone preferences in your user account.

Time Position Orientation Groundspeed Altitude Reporting Facility
EDT Latitude Longitude Course Direction KTS MPH feet Rate Location/Type
06:42PM 36.9056 -76.1894 293° West 182 209 700  Level Washington Center
06:42PM 36.9308 -76.1686 33° Northeast 209 241 1,700 2,340 Climbing Washington Center
06:43PM 36.9722 -76.2081 323° Northwest 232 267 4,300 2,700 Climbing Washington Center
06:45PM 37.0970 -76.6267 300° West  Level FlightAware Approximate
06:45PM 36.9986 -76.3436 284° West 238 274 9,700  Level Washington Center
06:46PM 37.1473 -76.7373 300° West  Level FlightAware Approximate
06:46PM 37.0317 -76.4139 301° West 238 274 11,700  Level Washington Center
06:47PM 37.1944 -76.8499 293° West  Level FlightAware Approximate
06:47PM 37.0664 -76.4978 297° West 245 282 13,600  Level Washington Center
06:48PM 37.1014 -76.5761 299° West 257 296 15,900 2,040 Climbing Washington Center
06:49PM 37.1572 -76.6211 327° Northwest 262 302 17,900 1,500 Climbing Washington Center
06:50PM 37.2325 -76.6014 12° North 219 252 19,000 540 Climbing Washington Center
06:51PM 37.3181 -76.5842 North 262 302 19,000  Level Washington Center
06:52PM 37.4164 -76.5594 11° North 310 357 19,000  Level Washington Center
06:53PM 37.5144 -76.5397 North 339 390 19,000  Level Washington Center
06:54PM 37.6147 -76.5200 North 360 414 19,000  Level Washington Center
06:55PM 37.7131 -76.4975 10° North 360 414 19,000  Level Washington Center
06:56PM 37.8258 -76.4725 10° North 366 421 19,000 -300 Level Washington Center
06:57PM 37.9242 -76.4500 10° North 366 421 18,500 -600 Descending Washington Center
06:58PM 38.0264 -76.4300 North 371 427 17,800 -900 Descending Washington Center
06:59PM 38.1244 -76.4075 10° North 371 427 16,700 -1,320 Descending Washington Center
07:00PM 38.2247 -76.3847 10° North 371 427 15,200 -1,380 Descending Washington Center
07:01PM 38.3019 -76.3828 North 366 421 14,000 -1,140 Descending Washington Center
07:02PM 38.4061 -76.3972 354° North 351 404 13,000 -540 Descending Washington Center
07:03PM 38.5000 -76.4036 357° North 345 397 13,000  Level Washington Center
07:04PM 38.5897 -76.3644 19° North 331 381 13,000  Level Washington Center
07:05PM 38.6797 -76.3203 21° North 331 381 13,000 3,000 Level Washington Center
07:06PM 38.7781 -76.2653 24° Northeast 346 398 19,000 -60 Climbing Washington Center
07:07PM 38.8511 -76.2208 25° Northeast 346 398 12,900 -3,360 Descending Washington Center
07:08PM 38.9350 -76.1681 26° Northeast 335 386 12,200 -720 Descending Washington Center
07:09PM 39.0269 -76.1125 25° Northeast 342 394 11,500 -660 Descending Washington Center
07:10PM 39.1106 -76.0650 24° Northeast 336 387 11,000 -300 Descending Washington Center
07:11PM 39.1919 -76.0147 26° Northeast 331 381 10,900  Descending Washington Center
07:12PM 39.2733 -75.9642 26° Northeast 325 374 11,000  Climbing Washington Center
07:13PM 39.3569 -75.9136 25° Northeast 320 368 11,000  Level Washington Center
07:15PM 39.5000 -75.8167 28° Northeast 329 379 11,000  Level Philadelphia TRACON
07:16PM 39.5667 -75.7333 44° Northeast 328 377 11,000  Level Philadelphia TRACON
07:17PM 39.6333 -75.6500 44° Northeast 328 377 11,000  Level Philadelphia TRACON
07:18PM 39.7000 -75.5667 44° Northeast 319 367 11,000  Level Philadelphia TRACON
07:19PM 39.7167 -75.4500 79° East 322 371 11,000  Level Philadelphia TRACON
07:20PM 39.7500 -75.3500 67° East 324 373 11,000 -180 Level Philadelphia TRACON
07:21PM 39.7833 -75.2333 70° East 324 373 10,700 -480 Descending Philadelphia TRACON
07:22PM 39.8167 -75.1333 67° East 318 366 10,100 -360 Descending Philadelphia TRACON
07:23PM 39.8833 -75.0333 49° Northeast 314 361 10,000 -300 Descending Philadelphia TRACON
07:24PM 39.9333 -74.9500 52° Northeast 280 322 9,500 -840 Descending Philadelphia TRACON
07:26PM 39.9677 -74.8149 52° Northeast  Level FlightAware Approximate
07:26PM 40.0500 -74.7500 52° Northeast 275 316 7,100  Level New York TRACON
07:27PM 40.0833 -74.7000 49° Northeast 273 314 7,100  Level New York TRACON
07:29PM 40.1258 -74.5792 52° Northeast  Level FlightAware Approximate
07:29PM 40.1833 -74.5167 52° Northeast 273 314 7,100  Level New York TRACON
07:30PM 40.2500 -74.4667 30° Northeast 275 316 7,100 -120 Level New York TRACON
07:31PM 40.3167 -74.4833 349° North 277 319 6,900 -480 Descending New York TRACON
07:32PM 40.3667 -74.5333 323° Northwest 274 315 6,300 -240 Descending New York TRACON
07:34PM 40.4403 -74.4514 27° Northeast  Level Estimated
07:35PM 40.5833 -74.6833 30° Northeast 276 318 6,100  Level New York TRACON
07:36PM 40.6500 -74.7000 349° North 276 318 6,100  Level New York TRACON
07:37PM 40.7333 -74.7167 351° North 283 326 6,100  Level New York TRACON
07:38PM 40.8000 -74.6833 21° North 277 319 6,100 -60 Level New York TRACON
07:39PM 40.8667 -74.6333 30° Northeast 277 319 6,000  Descending New York TRACON
07:40PM 40.9333 -74.6000 21° North 244 281 6,100  Climbing New York TRACON
07:41PM 40.6833 -74.1667 30° Northeast  Level FlightAware Approximate
07:42PM 40.8827 -74.5088 126° Southeast  Level Estimated
07:42PM 41.0500 -74.5333 126° Southeast 247 284 6,100  Level New York TRACON
07:43PM 41.1167 -74.4833 29° Northeast 248 285 5,600 -540 Descending New York TRACON
07:44PM 41.1333 -74.4167 72° East 235 270 5,100 -300 Descending New York TRACON
07:45PM 41.1333 -74.3333 90° East 220 253 5,100  Level New York TRACON
07:46PM 41.1000 -74.2667 124° Southeast 215 247 5,100  Level New York TRACON
07:47PM 41.0500 -74.2333 153° Southeast 169 194 5,100 -480 Level New York TRACON
07:48PM 41.0333 -74.1667 108° East 171 197 4,200 -900 Descending New York TRACON